Main page
METAR-TAF:

METAR-TAF

Airports :

Lagos, Nigeria

Murtala Muhammed International Airport

latitude: 06-35N, longitude: 003-20E, elevation: 40 m

METAR: missing

Time: 04:15 (03:15 UTC)

Forecast

The report was made 17 hours and 25 minutes ago, at 09:50 UTC
Forecast valid from 17 at 12 UTC to 18 at 18 UTC
Wind 5 kt from the South
Visibility 10 km or more
Broken clouds at a height of 1400 ft
Few clouds at a height of 2000 ft, Cumulonimbus.
Probability 30% :
Temporary
from 17 at 12 UTC to 17 at 18 UTC
Wind 10 kt from the West/Southwest
thunderstorm
Becoming
from 17 at 18 UTC to 17 at 20 UTC
Few clouds at a height of 1100 ft

TAF: DNMM 170950Z 1712/1818 18005KT 9999 BKN014 FEW020CB PROB30 TEMPO 1712/1718 25010KT TS BECMG 1718/1720 FEW011

Weather observations and forecasts of more than 4000 airports (METAR and TAF reports).

The available stations are represented by yellow and red dots on the map.

Hover mouse over dot to see the name of the station.

Then click to see weather observations and forecasts.

To change the map : click on the green buttons with a black cross to zoom in, on the green button with a dash to zoom out, or on the green arrows for adjacent maps.


METAR-TAF: